Eagle Pass, TX (78852)

11:42 PM CST en Diciembre 17, 2014 (GMT -0600)
Faith Ranch AP, Carrizo Sprin | Change Station
CLOSE
Current Station
Aeropuerto
Location: Faith Ranch AP, Carrizo Sprin,
Altura: 774 ft
Estaciones meteorológicas cercanas

Alt 774 ft 28.21 °N, 100.02 °W | Updated -2853 second ago

Nublado
Nublado
54 ° F
Sensación térmica 54 ° F
N
4
Viento Variable Viento desde Norte

Hoy
Alta -- | Baja -- ° F
--% Posibilidad de precipitaciones
Ayer
Alta -- | Baja -- ° F
Precip. -- pul
7:28 AM 5:47 PM
Creciente menguante, 17% visible
Presión 30.08 pul
Visibilidad 10.0 Millas
Nubes Nublado 400 ft
Punto de rocío 52 ° F
Humedad 94%
Precipitaciones 0.00 pul
Espesor de la nieve No disponible.
UV 0 de una escala de 12
Polen 8.10 de una escala de 12
Calidad del aire No disponible.
Flu Activity No disponible.
METAR KFTN 180630Z AUTO 35003KT 10SM OVC004 12/11 A3008 RMK AO1

More Conditions Fewer Conditions

Presión 30.08 pul
Visibilidad 10.0 Millas
Nubes Nublado 400 ft
Punto de rocío 52 ° F
Humedad 94%
Precipitaciones 0.00 pul
Espesor de la nieve No disponible.
UV 0 de una escala de 12
Polen 8.10 de una escala de 12
Calidad del aire No disponible.
Flu Activity No disponible.
METAR KFTN 180630Z AUTO 35003KT 10SM OVC004 12/11 A3008 RMK AO1

More Conditions Fewer Conditions

10-Day Weather Forecast

Almanac

Astronomía

Dec. 17, 2014 Salida Puesta
Hora real
Crepúsculo civil
Crepúsculo náutico
Crepúsculo astronómico
Luna
Horas de luz
Horas de luz
Tomorrow will be .
, % of the Moon is Illuminated

Extremos de hoy

Máximos del estado Bajos del estado

Community

WunderPhotos

Upload Photos

1,778,896 ¡fotos cargadas!

WunderBlogs® & News

Nearby

Calidad del aire

  Calidad del aire Índice AQ Contaminante
Not available.

Grosos de nieve

Estación Profundido Altura

Actividad de terremotos

Ciudad Distance Mag. Tiempo y dato
Magnitud mínima muestra es 2,5.

Temperaturas de aguas costeras

Lugar Temperatura

Estaciones meteorológicas cercanas